createdAt,value
2019-05-19T00:01:29.556Z,3.60
2019-05-19T00:04:00.903Z,3.10
2019-05-19T00:06:33.278Z,3.62
2019-05-19T00:09:05.637Z,3.22
2019-05-19T00:11:37.349Z,3.12
2019-05-19T00:14:09.827Z,3.52
2019-05-19T00:16:43.316Z,3.30
2019-05-19T00:19:26.216Z,3.22
2019-05-19T00:21:47.979Z,4.17
2019-05-19T00:24:23.248Z,3.45
2019-05-19T00:26:54.667Z,2.98
2019-05-19T00:29:27.105Z,3.37
2019-05-19T00:31:58.503Z,3.37
2019-05-19T00:34:30.778Z,3.60
2019-05-19T00:37:03.349Z,3.22
2019-05-19T00:39:35.839Z,3.33
2019-05-19T00:42:07.398Z,3.87
2019-05-19T00:44:40.056Z,3.90
2019-05-19T00:47:11.485Z,4.22
2019-05-19T00:49:43.044Z,3.92
2019-05-19T00:52:14.632Z,3.30
2019-05-19T00:54:46.073Z,3.85
2019-05-19T00:57:17.872Z,3.92
2019-05-19T00:59:51.991Z,3.67
2019-05-19T01:02:23.695Z,3.87
2019-05-19T01:04:55.209Z,3.80
2019-05-19T01:07:28.599Z,3.52
2019-05-19T01:10:00.025Z,3.20
2019-05-19T01:12:31.537Z,3.20
2019-05-19T01:15:07.132Z,3.30
2019-05-19T01:17:42.112Z,3.50
2019-05-19T01:20:15.676Z,4.10
2019-05-19T01:22:49.151Z,4.25
2019-05-19T01:25:20.966Z,3.80
2019-05-19T01:27:52.749Z,3.45
2019-05-19T01:30:25.232Z,3.60
2019-05-19T01:32:57.855Z,3.27
2019-05-19T01:35:29.510Z,2.80
2019-05-19T01:38:02.428Z,3.17
2019-05-19T01:40:33.923Z,3.17
2019-05-19T01:43:05.485Z,2.90
2019-05-19T01:45:36.938Z,3.00
2019-05-19T01:48:09.321Z,2.90
2019-05-19T01:50:41.523Z,2.92
2019-05-19T01:53:13.273Z,2.55
2019-05-19T01:55:44.731Z,2.90
2019-05-19T01:58:16.143Z,3.02
2019-05-19T02:00:49.699Z,3.08
2019-05-19T02:03:21.214Z,3.02
2019-05-19T02:05:52.655Z,2.95
2019-05-19T02:08:28.577Z,2.83
2019-05-19T02:11:00.232Z,3.05
2019-05-19T02:13:31.661Z,2.80
2019-05-19T02:16:03.123Z,3.22
2019-05-19T02:18:34.554Z,3.40
2019-05-19T02:21:06.714Z,3.00
2019-05-19T02:23:40.048Z,3.10
2019-05-19T02:26:11.584Z,2.90
2019-05-19T02:28:46.005Z,3.02
2019-05-19T02:31:17.727Z,3.20
2019-05-19T02:33:50.625Z,3.25
2019-05-19T02:36:27.094Z,3.33
2019-05-19T02:38:58.611Z,3.40
2019-05-19T02:41:32.925Z,3.27
2019-05-19T02:44:05.313Z,3.22
2019-05-19T02:46:41.888Z,2.90
2019-05-19T02:49:16.084Z,2.90
2019-05-19T02:51:50.649Z,3.17
2019-05-19T02:54:22.731Z,3.65
2019-05-19T02:56:55.312Z,3.40
2019-05-19T02:59:27.641Z,3.35
2019-05-19T03:02:09.539Z,3.77
2019-05-19T03:04:41.187Z,3.25
2019-05-19T03:07:13.381Z,3.20
2019-05-19T03:09:44.813Z,2.92
2019-05-19T03:12:17.864Z,3.27
2019-05-19T03:14:50.627Z,2.92
2019-05-19T03:17:22.197Z,2.90
2019-05-19T03:19:55.405Z,2.95
2019-05-19T03:22:28.290Z,2.83
2019-05-19T03:24:59.888Z,3.20
2019-05-19T03:27:32.702Z,3.02
2019-05-19T03:30:28.042Z,3.12
2019-05-19T03:33:03.677Z,2.80
2019-05-19T03:35:35.133Z,2.85
2019-05-19T03:38:07.689Z,3.00
2019-05-19T03:40:41.015Z,3.10
2019-05-19T03:43:12.536Z,2.65
2019-05-19T03:45:46.142Z,2.90
2019-05-19T03:48:17.475Z,3.17
2019-05-19T03:50:48.836Z,3.02
2019-05-19T03:53:20.391Z,3.00
2019-05-19T03:55:51.830Z,2.70
2019-05-19T03:58:23.232Z,3.20
2019-05-19T04:00:56.004Z,2.85
2019-05-19T04:03:28.408Z,3.20
2019-05-19T04:06:02.241Z,3.27
2019-05-19T04:08:35.776Z,3.22
2019-05-19T04:11:08.311Z,2.90
2019-05-19T04:13:39.801Z,2.87
2019-05-19T04:16:12.177Z,3.00
2019-05-19T04:18:44.712Z,3.42
2019-05-19T04:21:18.138Z,3.30
2019-05-19T04:23:49.635Z,3.37
2019-05-19T04:26:22.093Z,3.10
2019-05-19T04:28:55.750Z,2.90
2019-05-19T04:31:29.432Z,3.33
2019-05-19T04:34:00.924Z,3.00
2019-05-19T04:36:32.274Z,3.10
2019-05-19T04:39:06.403Z,3.02
2019-05-19T04:41:40.222Z,3.50
2019-05-19T04:44:10.963Z,3.22
2019-05-19T04:46:44.386Z,3.35
2019-05-19T04:49:15.936Z,3.40
2019-05-19T04:52:05.204Z,3.30
2019-05-19T04:54:20.489Z,2.90
2019-05-19T04:56:52.921Z,3.10
2019-05-19T04:59:24.374Z,3.25
2019-05-19T05:01:56.736Z,3.22
2019-05-19T05:04:29.515Z,2.90
2019-05-19T05:07:01.380Z,2.92
2019-05-19T05:09:32.873Z,2.92
2019-05-19T05:12:04.327Z,3.00
2019-05-19T05:14:36.805Z,3.25
2019-05-19T05:17:09.051Z,3.17
2019-05-19T05:19:40.636Z,3.10
2019-05-19T05:22:21.665Z,3.27
2019-05-19T05:24:45.214Z,3.30
2019-05-19T05:27:16.655Z,3.20
2019-05-19T05:29:51.629Z,3.20
2019-05-19T05:32:24.023Z,3.25
2019-05-19T05:34:55.368Z,3.05
2019-05-19T05:37:26.872Z,2.90
2019-05-19T05:40:00.424Z,3.17
2019-05-19T05:42:32.191Z,2.85
2019-05-19T05:45:04.871Z,3.05
2019-05-19T05:47:36.356Z,3.10
2019-05-19T05:50:08.262Z,3.42
2019-05-19T05:52:39.839Z,3.12
2019-05-19T05:55:11.668Z,3.45
2019-05-19T05:57:43.125Z,2.80
2019-05-19T06:00:15.957Z,3.00
2019-05-19T06:02:48.609Z,3.10
2019-05-19T06:05:21.132Z,2.87
2019-05-19T06:07:52.615Z,3.00
2019-05-19T06:10:27.639Z,2.98
2019-05-19T06:12:59.181Z,3.08
2019-05-19T06:15:31.252Z,2.83
2019-05-19T06:18:02.725Z,2.85
2019-05-19T06:20:35.076Z,2.45
2019-05-19T06:23:06.577Z,2.60
2019-05-19T06:25:38.986Z,2.70
2019-05-19T06:28:10.328Z,2.87
2019-05-19T06:30:43.525Z,2.80
2019-05-19T06:33:15.994Z,2.35
2019-05-19T06:35:48.590Z,2.90
2019-05-19T06:38:20.361Z,2.35
2019-05-19T06:40:52.914Z,2.55
2019-05-19T06:43:24.431Z,2.90
2019-05-19T06:45:56.031Z,2.75
2019-05-19T06:48:27.435Z,3.20
2019-05-19T06:50:58.820Z,2.40
2019-05-19T06:53:30.276Z,2.50
2019-05-19T06:56:02.798Z,2.10
2019-05-19T06:58:34.325Z,2.75
2019-05-19T07:01:05.772Z,2.50
2019-05-19T07:03:38.351Z,2.30
2019-05-19T07:06:09.869Z,3.00
2019-05-19T07:08:41.363Z,3.00
2019-05-19T07:11:12.914Z,3.20
2019-05-19T07:13:44.403Z,3.00
2019-05-19T07:16:19.078Z,2.90
2019-05-19T07:18:50.524Z,3.10
2019-05-19T07:21:22.073Z,2.42
2019-05-19T07:23:53.481Z,3.02
2019-05-19T07:26:25.051Z,2.67
2019-05-19T07:28:58.968Z,2.67
2019-05-19T07:31:30.705Z,2.40
2019-05-19T07:34:02.222Z,2.70
2019-05-19T07:36:33.794Z,2.67
2019-05-19T07:39:08.151Z,2.70
2019-05-19T07:41:39.879Z,2.80
2019-05-19T07:44:12.403Z,2.87
2019-05-19T07:46:44.851Z,2.77
2019-05-19T07:49:16.241Z,2.45
2019-05-19T07:51:50.663Z,2.80
2019-05-19T07:54:22.055Z,2.72
2019-05-19T07:56:54.583Z,3.10
2019-05-19T07:59:25.999Z,2.83
2019-05-19T08:01:57.718Z,2.90
2019-05-19T08:04:29.173Z,3.00
2019-05-19T08:07:00.716Z,3.30
2019-05-19T08:09:32.097Z,3.08
2019-05-19T08:12:03.639Z,2.90
2019-05-19T08:14:34.982Z,2.83
2019-05-19T08:17:06.413Z,2.90
2019-05-19T08:19:38.067Z,3.05
2019-05-19T08:22:09.539Z,3.00
2019-05-19T08:24:41.972Z,3.10
2019-05-19T08:27:13.395Z,2.70
2019-05-19T08:29:46.291Z,2.75
2019-05-19T08:32:17.879Z,3.30
2019-05-19T08:34:49.411Z,3.20
2019-05-19T08:37:22.773Z,2.77
2019-05-19T08:39:54.354Z,2.60
2019-05-19T08:42:25.888Z,3.40
2019-05-19T08:44:58.144Z,3.02
2019-05-19T08:47:30.833Z,3.10
2019-05-19T08:50:02.388Z,3.25
2019-05-19T08:52:35.836Z,3.37
2019-05-19T08:55:09.699Z,2.62
2019-05-19T08:57:44.320Z,2.53
2019-05-19T09:00:22.456Z,2.87
2019-05-19T09:02:53.940Z,3.00
2019-05-19T09:05:25.426Z,2.75
2019-05-19T09:07:56.965Z,2.47
2019-05-19T09:10:33.421Z,3.12
2019-05-19T09:13:04.889Z,2.83
2019-05-19T09:15:37.885Z,3.02
2019-05-19T09:18:09.472Z,2.58
2019-05-19T09:20:40.942Z,3.00
2019-05-19T09:23:14.220Z,2.70
2019-05-19T09:25:46.083Z,2.87
2019-05-19T09:28:17.980Z,2.70
2019-05-19T09:30:49.692Z,3.05
2019-05-19T09:33:21.442Z,2.70
2019-05-19T09:35:54.660Z,2.70
2019-05-19T09:38:26.220Z,2.60
2019-05-19T09:40:57.868Z,2.45
2019-05-19T09:43:29.454Z,2.70
2019-05-19T09:46:00.910Z,3.10
2019-05-19T09:48:32.589Z,2.60
2019-05-19T09:51:04.192Z,2.40
2019-05-19T09:53:35.843Z,2.67
2019-05-19T09:56:07.296Z,2.62
2019-05-19T09:58:38.825Z,2.65
2019-05-19T10:01:10.359Z,2.40
2019-05-19T10:03:41.803Z,2.65
2019-05-19T10:06:15.774Z,2.55
2019-05-19T10:08:49.220Z,3.17
2019-05-19T10:11:47.768Z,2.77
2019-05-19T10:14:19.263Z,2.65
2019-05-19T10:16:52.115Z,3.17
2019-05-19T10:19:23.895Z,2.47
2019-05-19T10:21:56.824Z,2.50
2019-05-19T10:24:28.519Z,2.58
2019-05-19T10:27:00.127Z,2.17
2019-05-19T10:29:31.599Z,2.40
2019-05-19T10:32:03.033Z,2.47
2019-05-19T10:34:36.414Z,2.55
2019-05-19T10:37:07.945Z,2.90
2019-05-19T10:39:39.550Z,2.72
2019-05-19T10:42:11.386Z,2.60
2019-05-19T10:44:43.883Z,2.45
2019-05-19T10:47:16.401Z,2.52
2019-05-19T10:50:01.501Z,2.40
2019-05-19T10:52:37.088Z,2.30
2019-05-19T10:55:08.779Z,2.20
2019-05-19T10:57:41.364Z,2.60
2019-05-19T11:00:13.453Z,2.70
2019-05-19T11:02:45.193Z,2.40
2019-05-19T11:05:16.618Z,2.17
2019-05-19T11:07:48.066Z,2.92
2019-05-19T11:10:19.535Z,2.20
2019-05-19T11:12:50.955Z,2.70
2019-05-19T11:15:22.432Z,2.33
2019-05-19T11:17:54.806Z,2.22
2019-05-19T11:20:26.195Z,2.25
2019-05-19T11:22:58.585Z,2.45
2019-05-19T11:25:34.000Z,2.22
2019-05-19T11:28:03.247Z,2.10
2019-05-19T11:30:34.722Z,2.37
2019-05-19T11:33:06.146Z,2.20
2019-05-19T11:35:37.624Z,2.02
2019-05-19T11:38:09.218Z,2.58
2019-05-19T11:40:41.759Z,2.47
2019-05-19T11:43:13.196Z,2.00
2019-05-19T11:45:45.706Z,2.17
2019-05-19T11:48:17.110Z,2.77
2019-05-19T11:50:48.463Z,2.40
2019-05-19T11:53:20.012Z,2.33
2019-05-19T11:56:05.479Z,2.47
2019-05-19T11:58:24.811Z,2.47
2019-05-19T12:00:57.895Z,2.30
2019-05-19T12:03:29.404Z,2.20
2019-05-19T12:06:02.141Z,2.12
2019-05-19T12:08:33.792Z,2.30
2019-05-19T12:11:05.239Z,2.47
2019-05-19T12:13:36.635Z,2.20
2019-05-19T12:16:10.695Z,2.30
2019-05-19T12:18:43.225Z,2.10
2019-05-19T12:21:16.821Z,2.77
2019-05-19T12:23:48.226Z,2.08
2019-05-19T12:26:23.092Z,2.20
2019-05-19T12:28:52.812Z,2.47
2019-05-19T12:31:24.340Z,2.10
2019-05-19T12:33:55.796Z,2.30
2019-05-19T12:36:29.386Z,2.50
2019-05-19T12:39:00.858Z,2.47
2019-05-19T12:41:33.961Z,2.50
2019-05-19T12:44:06.586Z,2.30
2019-05-19T12:46:39.028Z,2.40
2019-05-19T12:49:10.505Z,2.10
2019-05-19T12:51:42.017Z,2.20
2019-05-19T12:54:13.448Z,2.20
2019-05-19T12:56:50.220Z,2.45
2019-05-19T12:59:23.650Z,2.67
2019-05-19T13:01:55.108Z,2.30
2019-05-19T13:04:26.575Z,2.62
2019-05-19T13:06:58.378Z,2.22
2019-05-19T13:09:31.086Z,2.10
2019-05-19T13:12:02.564Z,2.60
2019-05-19T13:14:35.118Z,2.90
2019-05-19T13:17:06.613Z,2.75
2019-05-19T13:19:38.718Z,2.37
2019-05-19T13:22:10.209Z,2.40
2019-05-19T13:24:41.628Z,2.37
2019-05-19T13:27:16.585Z,2.33
2019-05-19T13:29:48.030Z,2.42
2019-05-19T13:32:19.412Z,2.62
2019-05-19T13:34:50.839Z,2.70
2019-05-19T13:37:24.267Z,2.58
2019-05-19T13:39:55.662Z,2.60
2019-05-19T13:42:27.140Z,2.33
2019-05-19T13:45:00.565Z,2.47
2019-05-19T13:47:32.003Z,3.33
2019-05-19T13:50:03.907Z,2.67
2019-05-19T13:52:36.018Z,2.80
2019-05-19T13:55:09.457Z,2.87
2019-05-19T13:57:40.871Z,2.70
2019-05-19T14:00:12.832Z,2.58
2019-05-19T14:02:44.252Z,2.58
2019-05-19T14:05:15.651Z,2.37
2019-05-19T14:07:48.254Z,2.20
2019-05-19T14:10:19.797Z,2.50
2019-05-19T14:12:52.009Z,2.45
2019-05-19T14:15:23.400Z,2.30
2019-05-19T14:17:56.028Z,2.22
2019-05-19T14:20:30.590Z,2.22
2019-05-19T14:25:34.663Z,2.55
2019-05-19T14:28:06.435Z,2.25
2019-05-19T14:30:40.886Z,2.35
2019-05-19T14:33:14.988Z,2.55
2019-05-19T14:35:48.817Z,2.17
2019-05-19T14:38:21.784Z,2.37
2019-05-19T14:40:53.300Z,2.25
2019-05-19T14:43:27.443Z,2.35
2019-05-19T14:45:58.858Z,2.20
2019-05-19T14:48:30.319Z,2.30
2019-05-19T14:51:01.973Z,2.72
2019-05-19T14:53:33.680Z,2.35
2019-05-19T14:56:07.026Z,2.67
2019-05-19T14:58:38.683Z,2.77
2019-05-19T15:01:10.168Z,2.40
2019-05-19T15:03:41.699Z,2.55
2019-05-19T15:06:13.251Z,2.33
2019-05-19T15:08:46.190Z,2.40
2019-05-19T15:11:18.617Z,2.70
2019-05-19T15:13:50.105Z,2.60
2019-05-19T15:16:21.534Z,2.58
2019-05-19T15:18:52.936Z,2.70
2019-05-19T15:21:24.308Z,2.42
2019-05-19T15:23:55.804Z,2.42
2019-05-19T15:26:27.357Z,2.50
2019-05-19T15:28:59.988Z,2.50
2019-05-19T15:31:31.519Z,2.90
2019-05-19T15:34:02.976Z,2.87
2019-05-19T15:36:34.576Z,2.40
2019-05-19T15:39:07.017Z,2.35
2019-05-19T15:41:39.471Z,2.35
2019-05-19T15:44:15.832Z,2.58
2019-05-19T15:46:47.299Z,3.08
2019-05-19T15:49:18.845Z,2.95
2019-05-19T15:52:01.810Z,2.87
2019-05-19T15:54:23.558Z,2.72
2019-05-19T15:56:55.166Z,2.50
2019-05-19T15:59:29.737Z,2.47
2019-05-19T16:02:01.201Z,2.70
2019-05-19T16:04:34.732Z,3.08
2019-05-19T16:07:06.201Z,2.80
2019-05-19T16:09:37.622Z,2.70
2019-05-19T16:12:09.060Z,2.90
2019-05-19T16:14:41.647Z,2.95
2019-05-19T16:17:15.063Z,3.05
2019-05-19T16:19:46.713Z,2.70
2019-05-19T16:22:18.240Z,3.27
2019-05-19T16:24:49.666Z,2.62
2019-05-19T16:27:21.165Z,2.65
2019-05-19T16:29:52.591Z,2.55
2019-05-19T16:32:24.012Z,2.45
2019-05-19T16:34:55.482Z,2.70
2019-05-19T16:37:26.925Z,2.35
2019-05-19T16:39:58.473Z,2.33
2019-05-19T16:42:32.357Z,2.70
2019-05-19T16:45:07.627Z,2.52
2019-05-19T16:47:40.054Z,2.20
2019-05-19T16:50:11.949Z,2.50
2019-05-19T16:52:44.509Z,2.33
2019-05-19T16:55:18.461Z,2.62
2019-05-19T16:57:50.933Z,2.20
2019-05-19T17:00:23.304Z,2.50
2019-05-19T17:02:55.758Z,2.50
2019-05-19T17:05:27.181Z,2.87
2019-05-19T17:08:00.571Z,2.90
2019-05-19T17:10:32.091Z,2.72
2019-05-19T17:13:03.522Z,3.05
2019-05-19T17:15:35.156Z,2.92
2019-05-19T17:18:08.255Z,2.90
2019-05-19T17:20:39.805Z,3.08
2019-05-19T17:23:11.212Z,3.08
2019-05-19T17:25:43.645Z,2.83
2019-05-19T17:28:16.139Z,3.30
2019-05-19T17:30:47.758Z,3.20
2019-05-19T17:33:19.602Z,3.10
2019-05-19T17:35:51.275Z,3.37
2019-05-19T17:38:22.701Z,3.20
2019-05-19T17:40:54.167Z,3.05
2019-05-19T17:43:25.737Z,3.17
2019-05-19T17:45:57.175Z,3.80
2019-05-19T17:48:29.726Z,3.83
2019-05-19T17:51:01.342Z,3.70
2019-05-19T17:53:34.847Z,4.00
2019-05-19T17:56:06.331Z,4.42
2019-05-19T17:58:38.450Z,4.05
2019-05-19T18:01:10.965Z,3.85
2019-05-19T18:03:44.566Z,3.98
2019-05-19T18:06:18.180Z,4.08
2019-05-19T18:08:49.761Z,3.50
2019-05-19T18:11:21.277Z,3.22
2019-05-19T18:13:52.894Z,3.37
2019-05-19T18:16:24.431Z,3.50
2019-05-19T18:18:55.919Z,3.27
2019-05-19T18:21:27.372Z,3.27
2019-05-19T18:23:58.767Z,3.27
2019-05-19T18:26:31.743Z,3.22
2019-05-19T18:29:03.565Z,3.20
2019-05-19T18:31:34.966Z,3.25
2019-05-19T18:34:06.499Z,3.20
2019-05-19T18:36:38.039Z,3.20
2019-05-19T18:39:11.582Z,3.02
2019-05-19T18:41:43.011Z,3.45
2019-05-19T18:44:14.414Z,3.10
2019-05-19T18:46:45.867Z,3.33
2019-05-19T18:49:17.327Z,3.00
2019-05-19T18:51:48.746Z,3.37
2019-05-19T18:54:25.030Z,3.52
2019-05-19T18:56:58.541Z,4.45
2019-05-19T18:59:31.078Z,5.03
2019-05-19T19:02:04.793Z,4.63
2019-05-19T19:04:36.295Z,5.40
2019-05-19T19:07:08.842Z,5.20
2019-05-19T19:09:40.366Z,4.40
2019-05-19T19:12:11.789Z,4.17
2019-05-19T19:14:43.242Z,4.75
2019-05-19T19:17:16.677Z,4.60
2019-05-19T19:19:48.241Z,4.20
2019-05-19T19:22:21.889Z,3.98
2019-05-19T19:24:53.312Z,4.53
2019-05-19T19:27:24.993Z,3.98
2019-05-19T19:30:03.417Z,4.78
2019-05-19T19:32:29.853Z,4.20
2019-05-19T19:35:01.524Z,4.58
2019-05-19T19:37:34.050Z,4.40
2019-05-19T19:40:08.131Z,4.40
2019-05-19T19:42:39.633Z,4.85
2019-05-19T19:45:11.188Z,5.00
2019-05-19T19:47:42.696Z,4.97
2019-05-19T19:50:15.213Z,4.42
2019-05-19T19:52:46.669Z,4.53
2019-05-19T19:55:18.105Z,5.50
2019-05-19T19:57:49.643Z,5.05
2019-05-19T20:00:38.974Z,4.70
2019-05-19T20:03:10.693Z,4.70
2019-05-19T20:05:43.446Z,4.92
2019-05-19T20:08:15.935Z,4.55
2019-05-19T20:10:47.470Z,4.85
2019-05-19T20:13:19.120Z,5.17
2019-05-19T20:15:51.643Z,4.60
2019-05-19T20:18:23.072Z,4.67
2019-05-19T20:20:56.575Z,4.87
2019-05-19T20:23:28.139Z,4.72
2019-05-19T20:25:59.728Z,4.58
2019-05-19T20:28:31.055Z,5.35
2019-05-19T20:31:02.480Z,5.80
2019-05-19T20:33:34.982Z,6.12
2019-05-19T20:36:07.517Z,5.75
2019-05-19T20:38:40.127Z,6.08
2019-05-19T20:41:14.058Z,6.83
2019-05-19T20:43:46.613Z,6.30
2019-05-19T20:46:18.070Z,5.47
2019-05-19T20:48:49.622Z,5.53
2019-05-19T20:51:23.078Z,5.08
2019-05-19T20:53:55.615Z,5.10
2019-05-19T20:56:28.090Z,4.92
2019-05-19T20:58:59.641Z,4.65
2019-05-19T21:01:33.067Z,4.62
2019-05-19T21:04:04.609Z,5.10
2019-05-19T21:06:38.220Z,4.05
2019-05-19T21:09:09.617Z,4.60
2019-05-19T21:11:41.138Z,5.12
2019-05-19T21:14:13.274Z,4.83
2019-05-19T21:16:44.795Z,5.28
2019-05-19T21:19:17.774Z,5.22
2019-05-19T21:21:49.342Z,4.95
2019-05-19T21:24:20.746Z,5.83
2019-05-19T21:26:52.276Z,6.55
2019-05-19T21:29:23.832Z,7.08
2019-05-19T21:31:55.370Z,6.83
2019-05-19T21:34:27.889Z,7.45
2019-05-19T21:37:00.211Z,7.53
2019-05-19T21:39:33.150Z,7.50
2019-05-19T21:42:04.692Z,7.33
2019-05-19T21:44:36.240Z,6.75
2019-05-19T21:47:08.740Z,6.83
2019-05-19T21:49:40.284Z,6.25
2019-05-19T21:52:11.817Z,7.10
2019-05-19T21:54:44.286Z,6.45
2019-05-19T21:57:18.803Z,4.83
2019-05-19T21:59:51.511Z,4.40
2019-05-19T22:02:23.027Z,4.95
2019-05-19T22:04:56.589Z,3.90
2019-05-19T22:07:29.629Z,4.47
2019-05-19T22:10:02.074Z,4.40
2019-05-19T22:12:33.670Z,4.67
2019-05-19T22:15:06.422Z,4.78
2019-05-19T22:17:39.557Z,4.70
2019-05-19T22:20:11.812Z,4.40
2019-05-19T22:22:43.203Z,4.80
2019-05-19T22:25:15.817Z,4.42
2019-05-19T22:27:48.150Z,4.67
2019-05-19T22:30:24.039Z,4.35
2019-05-19T22:32:59.379Z,4.00
2019-05-19T22:35:30.888Z,3.95
2019-05-19T22:38:03.386Z,4.08
2019-05-19T22:40:34.810Z,3.37
2019-05-19T22:43:06.229Z,2.77
2019-05-19T22:45:37.688Z,3.40
2019-05-19T22:48:09.117Z,3.20
2019-05-19T22:50:40.614Z,3.58
2019-05-19T22:53:13.058Z,4.20
2019-05-19T22:55:44.721Z,3.80
2019-05-19T22:58:17.127Z,3.05
2019-05-19T23:00:48.565Z,2.85
2019-05-19T23:03:20.015Z,2.67
2019-05-19T23:05:53.493Z,3.05
2019-05-19T23:08:24.940Z,2.72
2019-05-19T23:10:57.403Z,3.27
2019-05-19T23:13:28.913Z,2.83
2019-05-19T23:16:00.312Z,2.72
2019-05-19T23:18:32.697Z,3.02
2019-05-19T23:21:04.109Z,3.25
2019-05-19T23:23:35.512Z,3.00
2019-05-19T23:26:08.284Z,3.40
2019-05-19T23:28:40.774Z,3.77
2019-05-19T23:31:13.581Z,3.10
2019-05-19T23:33:46.042Z,3.27
2019-05-19T23:36:18.715Z,3.55
2019-05-19T23:38:50.055Z,3.25
2019-05-19T23:41:21.518Z,3.17
2019-05-19T23:43:53.984Z,3.87
2019-05-19T23:46:25.873Z,3.22
2019-05-19T23:48:57.321Z,3.83
2019-05-19T23:51:29.809Z,3.40
2019-05-19T23:54:01.116Z,3.47
2019-05-19T23:56:32.347Z,2.90
2019-05-19T23:59:04.789Z,3.30
